sensor_id;sensor_type;location;lat;lon;timestamp;pressure;altitude;pressure_sealevel;temperature
28305;BMP280;15569;42.652;23.040;2023-05-10T00:01:03;93154.56;;;16.40
28305;BMP280;15569;42.652;23.040;2023-05-10T00:03:28;93147.63;;;16.37
28305;BMP280;15569;42.652;23.040;2023-05-10T00:05:54;93154.75;;;16.46
28305;BMP280;15569;42.652;23.040;2023-05-10T00:08:19;93140.63;;;16.56
28305;BMP280;15569;42.652;23.040;2023-05-10T00:10:44;93148.25;;;16.57
28305;BMP280;15569;42.652;23.040;2023-05-10T00:13:10;93140.84;;;16.40
28305;BMP280;15569;42.652;23.040;2023-05-10T00:15:35;93147.41;;;16.29
28305;BMP280;15569;42.652;23.040;2023-05-10T00:18:01;93143.75;;;16.23
28305;BMP280;15569;42.652;23.040;2023-05-10T00:20:26;93135.16;;;16.10
28305;BMP280;15569;42.652;23.040;2023-05-10T00:22:51;93137.47;;;16.18
28305;BMP280;15569;42.652;23.040;2023-05-10T00:25:17;93133.91;;;16.13
28305;BMP280;15569;42.652;23.040;2023-05-10T00:27:42;93130.50;;;16.15
28305;BMP280;15569;42.652;23.040;2023-05-10T00:30:09;93134.75;;;16.20
28305;BMP280;15569;42.652;23.040;2023-05-10T00:32:34;93122.34;;;16.17
28305;BMP280;15569;42.652;23.040;2023-05-10T00:35:00;93129.16;;;16.16
28305;BMP280;15569;42.652;23.040;2023-05-10T00:37:25;93131.72;;;16.10
28305;BMP280;15569;42.652;23.040;2023-05-10T00:39:51;93131.50;;;16.04
28305;BMP280;15569;42.652;23.040;2023-05-10T00:42:16;93124.84;;;16.09
28305;BMP280;15569;42.652;23.040;2023-05-10T00:44:41;93128.78;;;16.04
28305;BMP280;15569;42.652;23.040;2023-05-10T00:47:07;93125.28;;;16.01
28305;BMP280;15569;42.652;23.040;2023-05-10T00:49:33;93124.56;;;16.01
28305;BMP280;15569;42.652;23.040;2023-05-10T00:51:59;93119.19;;;16.03
28305;BMP280;15569;42.652;23.040;2023-05-10T00:54:24;93128.88;;;16.06
28305;BMP280;15569;42.652;23.040;2023-05-10T00:56:51;93117.00;;;15.99
28305;BMP280;15569;42.652;23.040;2023-05-10T00:59:17;93119.28;;;16.07
28305;BMP280;15569;42.652;23.040;2023-05-10T01:01:44;93116.47;;;16.05
28305;BMP280;15569;42.652;23.040;2023-05-10T01:04:10;93122.09;;;16.09
28305;BMP280;15569;42.652;23.040;2023-05-10T01:06:37;93109.84;;;16.12
28305;BMP280;15569;42.652;23.040;2023-05-10T01:09:03;93112.59;;;15.90
28305;BMP280;15569;42.652;23.040;2023-05-10T01:11:28;93113.34;;;15.93
28305;BMP280;15569;42.652;23.040;2023-05-10T01:13:56;93119.81;;;16.01
28305;BMP280;15569;42.652;23.040;2023-05-10T01:16:23;93115.03;;;15.80
28305;BMP280;15569;42.652;23.040;2023-05-10T01:18:50;93111.59;;;15.80
28305;BMP280;15569;42.652;23.040;2023-05-10T01:24:05;93099.72;;;15.73
28305;BMP280;15569;42.652;23.040;2023-05-10T01:29:59;93103.78;;;15.72
28305;BMP280;15569;42.652;23.040;2023-05-10T01:35:03;93096.53;;;15.59
28305;BMP280;15569;42.652;23.040;2023-05-10T01:37:41;93099.41;;;15.63
28305;BMP280;15569;42.652;23.040;2023-05-10T01:40:31;93096.47;;;15.57
28305;BMP280;15569;42.652;23.040;2023-05-10T01:43:01;93099.84;;;15.56
28305;BMP280;15569;42.652;23.040;2023-05-10T01:45:29;93090.28;;;15.57
28305;BMP280;15569;42.652;23.040;2023-05-10T01:48:16;93093.41;;;15.47
28305;BMP280;15569;42.652;23.040;2023-05-10T01:50:45;93090.22;;;15.55
28305;BMP280;15569;42.652;23.040;2023-05-10T01:53:12;93086.00;;;15.52
28305;BMP280;15569;42.652;23.040;2023-05-10T01:55:52;93102.00;;;15.38
28305;BMP280;15569;42.652;23.040;2023-05-10T01:58:22;93097.44;;;15.24
28305;BMP280;15569;42.652;23.040;2023-05-10T02:00:49;93084.59;;;15.09
28305;BMP280;15569;42.652;23.040;2023-05-10T02:03:16;93100.50;;;15.35
28305;BMP280;15569;42.652;23.040;2023-05-10T02:05:43;93106.19;;;15.41
28305;BMP280;15569;42.652;23.040;2023-05-10T02:08:11;93088.53;;;15.46
28305;BMP280;15569;42.652;23.040;2023-05-10T02:10:39;93088.34;;;15.40
28305;BMP280;15569;42.652;23.040;2023-05-10T02:13:07;93090.25;;;15.35
28305;BMP280;15569;42.652;23.040;2023-05-10T02:15:34;93083.03;;;15.44
28305;BMP280;15569;42.652;23.040;2023-05-10T02:18:02;93081.41;;;15.37
28305;BMP280;15569;42.652;23.040;2023-05-10T02:20:29;93080.19;;;15.42
28305;BMP280;15569;42.652;23.040;2023-05-10T02:22:57;93082.13;;;15.37
28305;BMP280;15569;42.652;23.040;2023-05-10T02:25:24;93080.91;;;15.42
28305;BMP280;15569;42.652;23.040;2023-05-10T02:27:52;93079.72;;;15.47
28305;BMP280;15569;42.652;23.040;2023-05-10T02:30:19;93080.78;;;15.60
28305;BMP280;15569;42.652;23.040;2023-05-10T02:32:46;93088.03;;;15.71
28305;BMP280;15569;42.652;23.040;2023-05-10T02:35:12;93078.72;;;15.60
28305;BMP280;15569;42.652;23.040;2023-05-10T02:37:38;93085.44;;;15.77
28305;BMP280;15569;42.652;23.040;2023-05-10T02:40:06;93085.44;;;15.77
28305;BMP280;15569;42.652;23.040;2023-05-10T02:42:35;93086.63;;;15.72
28305;BMP280;15569;42.652;23.040;2023-05-10T02:45:02;93064.88;;;15.54
28305;BMP280;15569;42.652;23.040;2023-05-10T02:47:29;93084.19;;;15.80
28305;BMP280;15569;42.652;23.040;2023-05-10T02:49:54;93074.34;;;15.73
28305;BMP280;15569;42.652;23.040;2023-05-10T02:52:25;93076.25;;;15.90
28305;BMP280;15569;42.652;23.040;2023-05-10T02:54:55;93085.94;;;15.93
28305;BMP280;15569;42.652;23.040;2023-05-10T02:57:34;93081.63;;;15.86
28305;BMP280;15569;42.652;23.040;2023-05-10T03:00:01;93078.19;;;15.85
28305;BMP280;15569;42.652;23.040;2023-05-10T03:02:26;93076.13;;;15.86
28305;BMP280;15569;42.652;23.040;2023-05-10T03:04:52;93080.59;;;15.54
28305;BMP280;15569;42.652;23.040;2023-05-10T03:07:18;93077.66;;;15.48
28305;BMP280;15569;42.652;23.040;2023-05-10T03:09:47;93074.94;;;15.69
28305;BMP280;15569;42.652;23.040;2023-05-10T03:12:19;93079.72;;;15.69
28305;BMP280;15569;42.652;23.040;2023-05-10T03:15:03;93090.66;;;15.69
28305;BMP280;15569;42.652;23.040;2023-05-10T03:18:00;93078.63;;;15.78
28305;BMP280;15569;42.652;23.040;2023-05-10T03:20:38;93091.25;;;15.87
28305;BMP280;15569;42.652;23.040;2023-05-10T03:23:16;93087.22;;;15.90
28305;BMP280;15569;42.652;23.040;2023-05-10T03:25:48;93085.00;;;15.84
28305;BMP280;15569;42.652;23.040;2023-05-10T03:28:15;93085.31;;;15.73
28305;BMP280;15569;42.652;23.040;2023-05-10T03:30:41;93082.34;;;15.65
28305;BMP280;15569;42.652;23.040;2023-05-10T03:33:08;93078.41;;;15.72
28305;BMP280;15569;42.652;23.040;2023-05-10T03:35:33;93084.41;;;15.88
28305;BMP280;15569;42.652;23.040;2023-05-10T03:37:59;93088.06;;;15.73
28305;BMP280;15569;42.652;23.040;2023-05-10T03:40:25;93092.25;;;15.54
28305;BMP280;15569;42.652;23.040;2023-05-10T03:42:51;93074.84;;;15.46
28305;BMP280;15569;42.652;23.040;2023-05-10T03:45:17;93081.94;;;15.74
28305;BMP280;15569;42.652;23.040;2023-05-10T03:47:42;93084.59;;;15.51
28305;BMP280;15569;42.652;23.040;2023-05-10T03:50:07;93092.22;;;15.74
28305;BMP280;15569;42.652;23.040;2023-05-10T03:52:33;93087.88;;;15.67
28305;BMP280;15569;42.652;23.040;2023-05-10T03:54:59;93095.88;;;15.61
28305;BMP280;15569;42.652;23.040;2023-05-10T03:57:24;93090.06;;;15.70
28305;BMP280;15569;42.652;23.040;2023-05-10T03:59:49;93094.94;;;15.52
28305;BMP280;15569;42.652;23.040;2023-05-10T04:02:15;93092.31;;;15.56
28305;BMP280;15569;42.652;23.040;2023-05-10T04:04:40;93095.94;;;15.63
28305;BMP280;15569;42.652;23.040;2023-05-10T04:07:06;93105.59;;;15.64
28305;BMP280;15569;42.652;23.040;2023-05-10T04:09:31;93097.44;;;15.66
28305;BMP280;15569;42.652;23.040;2023-05-10T04:11:58;93105.31;;;15.56
28305;BMP280;15569;42.652;23.040;2023-05-10T04:14:24;93100.03;;;15.62
28305;BMP280;15569;42.652;23.040;2023-05-10T04:16:50;93101.31;;;15.59
28305;BMP280;15569;42.652;23.040;2023-05-10T04:19:15;93102.47;;;15.73
28305;BMP280;15569;42.652;23.040;2023-05-10T04:21:40;93100.75;;;15.84
28305;BMP280;15569;42.652;23.040;2023-05-10T04:24:06;93099.94;;;15.79
28305;BMP280;15569;42.652;23.040;2023-05-10T04:26:31;93103.59;;;15.66
28305;BMP280;15569;42.652;23.040;2023-05-10T04:28:56;93103.44;;;15.82
28305;BMP280;15569;42.652;23.040;2023-05-10T04:31:22;93107.63;;;15.85
28305;BMP280;15569;42.652;23.040;2023-05-10T04:33:47;93097.38;;;15.85
28305;BMP280;15569;42.652;23.040;2023-05-10T04:36:13;93108.84;;;15.80
28305;BMP280;15569;42.652;23.040;2023-05-10T04:38:38;93105.41;;;15.79
28305;BMP280;15569;42.652;23.040;2023-05-10T04:41:08;93109.91;;;15.29
28305;BMP280;15569;42.652;23.040;2023-05-10T04:43:34;93112.50;;;15.65
28305;BMP280;15569;42.652;23.040;2023-05-10T04:45:59;93110.75;;;15.75
28305;BMP280;15569;42.652;23.040;2023-05-10T04:48:25;93109.84;;;15.69
28305;BMP280;15569;42.652;23.040;2023-05-10T04:50:50;93107.56;;;15.61
28305;BMP280;15569;42.652;23.040;2023-05-10T04:53:15;93115.50;;;15.53
28305;BMP280;15569;42.652;23.040;2023-05-10T04:55:41;93120.31;;;15.53
28305;BMP280;15569;42.652;23.040;2023-05-10T04:58:06;93117.03;;;15.37
28305;BMP280;15569;42.652;23.040;2023-05-10T05:00:33;93109.81;;;15.25
28305;BMP280;15569;42.652;23.040;2023-05-10T05:02:58;93118.44;;;15.59
28305;BMP280;15569;42.652;23.040;2023-05-10T05:05:24;93120.09;;;15.47
28305;BMP280;15569;42.652;23.040;2023-05-10T05:07:49;93121.38;;;15.44
28305;BMP280;15569;42.652;23.040;2023-05-10T05:10:15;93125.16;;;15.76
28305;BMP280;15569;42.652;23.040;2023-05-10T05:12:40;93121.09;;;15.36
28305;BMP280;15569;42.652;23.040;2023-05-10T05:15:06;93124.78;;;15.64
28305;BMP280;15569;42.652;23.040;2023-05-10T05:17:34;93135.94;;;15.70
28305;BMP280;15569;42.652;23.040;2023-05-10T05:19:59;93113.06;;;15.42
28305;BMP280;15569;42.652;23.040;2023-05-10T05:22:25;93123.72;;;15.32
28305;BMP280;15569;42.652;23.040;2023-05-10T05:24:56;93124.97;;;15.50
28305;BMP280;15569;42.652;23.040;2023-05-10T05:27:23;93126.88;;;15.44
28305;BMP280;15569;42.652;23.040;2023-05-10T05:29:55;93131.38;;;15.57
28305;BMP280;15569;42.652;23.040;2023-05-10T05:32:21;93127.03;;;15.71
28305;BMP280;15569;42.652;23.040;2023-05-10T05:34:47;93125.09;;;15.74
28305;BMP280;15569;42.652;23.040;2023-05-10T05:37:14;93127.84;;;15.74
28305;BMP280;15569;42.652;23.040;2023-05-10T05:39:39;93119.81;;;15.80
28305;BMP280;15569;42.652;23.040;2023-05-10T05:42:05;93133.31;;;15.74
28305;BMP280;15569;42.652;23.040;2023-05-10T05:44:30;93133.06;;;15.87
28305;BMP280;15569;42.652;23.040;2023-05-10T05:46:56;93134.59;;;15.92
28305;BMP280;15569;42.652;23.040;2023-05-10T05:49:21;93144.59;;;15.84
28305;BMP280;15569;42.652;23.040;2023-05-10T05:51:46;93144.53;;;16.03
28305;BMP280;15569;42.652;23.040;2023-05-10T05:54:14;93137.28;;;15.90
28305;BMP280;15569;42.652;23.040;2023-05-10T05:56:40;93146.72;;;15.85
28305;BMP280;15569;42.652;23.040;2023-05-10T05:59:05;93152.69;;;16.01
28305;BMP280;15569;42.652;23.040;2023-05-10T06:01:31;93145.13;;;16.00
28305;BMP280;15569;42.652;23.040;2023-05-10T06:03:56;93147.88;;;16.00
28305;BMP280;15569;42.652;23.040;2023-05-10T06:06:22;93147.94;;;16.02
28305;BMP280;15569;42.652;23.040;2023-05-10T06:08:47;93146.78;;;16.09
28305;BMP280;15569;42.652;23.040;2023-05-10T06:11:12;93153.03;;;15.90
28305;BMP280;15569;42.652;23.040;2023-05-10T06:13:38;93154.84;;;15.83
28305;BMP280;15569;42.652;23.040;2023-05-10T06:16:03;93149.84;;;15.97
28305;BMP280;15569;42.652;23.040;2023-05-10T06:18:29;93146.72;;;15.85
28305;BMP280;15569;42.652;23.040;2023-05-10T06:20:54;93146.44;;;15.99
28305;BMP280;15569;42.652;23.040;2023-05-10T06:23:19;93157.22;;;15.93
28305;BMP280;15569;42.652;23.040;2023-05-10T06:25:45;93155.66;;;16.07
28305;BMP280;15569;42.652;23.040;2023-05-10T06:28:10;93155.19;;;16.15
28305;BMP280;15569;42.652;23.040;2023-05-10T06:30:36;93161.56;;;16.00
28305;BMP280;15569;42.652;23.040;2023-05-10T06:33:02;93163.16;;;16.07
28305;BMP280;15569;42.652;23.040;2023-05-10T06:35:28;93171.50;;;15.89
28305;BMP280;15569;42.652;23.040;2023-05-10T06:37:53;93165.28;;;16.08
28305;BMP280;15569;42.652;23.040;2023-05-10T06:40:19;93172.41;;;15.96
28305;BMP280;15569;42.652;23.040;2023-05-10T06:42:45;93175.91;;;15.98
28305;BMP280;15569;42.652;23.040;2023-05-10T06:45:11;93168.72;;;16.09
28305;BMP280;15569;42.652;23.040;2023-05-10T06:47:37;93174.13;;;16.29
28305;BMP280;15569;42.652;23.040;2023-05-10T06:50:03;93172.03;;;16.27
28305;BMP280;15569;42.652;23.040;2023-05-10T06:52:28;93166.56;;;16.27
28305;BMP280;15569;42.652;23.040;2023-05-10T06:54:54;93169.09;;;16.21
28305;BMP280;15569;42.652;23.040;2023-05-10T06:57:19;93178.41;;;16.12
28305;BMP280;15569;42.652;23.040;2023-05-10T06:59:45;93178.47;;;16.14
28305;BMP280;15569;42.652;23.040;2023-05-10T07:02:11;93182.41;;;15.87
28305;BMP280;15569;42.652;23.040;2023-05-10T07:04:36;93177.56;;;15.86
28305;BMP280;15569;42.652;23.040;2023-05-10T07:07:01;93171.91;;;16.01
28305;BMP280;15569;42.652;23.040;2023-05-10T07:09:27;93171.91;;;15.80
28305;BMP280;15569;42.652;23.040;2023-05-10T07:11:52;93173.53;;;15.89
28305;BMP280;15569;42.652;23.040;2023-05-10T07:14:18;93180.00;;;15.76
28305;BMP280;15569;42.652;23.040;2023-05-10T07:16:43;93190.59;;;15.85
28305;BMP280;15569;42.652;23.040;2023-05-10T07:19:09;93188.78;;;15.94
28305;BMP280;15569;42.652;23.040;2023-05-10T07:21:34;93184.00;;;16.16
28305;BMP280;15569;42.652;23.040;2023-05-10T07:24:00;93189.19;;;16.28
28305;BMP280;15569;42.652;23.040;2023-05-10T07:26:26;93185.34;;;16.37
28305;BMP280;15569;42.652;23.040;2023-05-10T07:28:51;93188.22;;;16.19
28305;BMP280;15569;42.652;23.040;2023-05-10T07:31:16;93186.94;;;16.22
28305;BMP280;15569;42.652;23.040;2023-05-10T07:33:42;93187.41;;;16.36
28305;BMP280;15569;42.652;23.040;2023-05-10T07:36:07;93188.34;;;16.45
28305;BMP280;15569;42.652;23.040;2023-05-10T07:38:33;93190.91;;;16.17
28305;BMP280;15569;42.652;23.040;2023-05-10T07:40:58;93188.03;;;16.35
28305;BMP280;15569;42.652;23.040;2023-05-10T07:43:23;93192.16;;;16.57
28305;BMP280;15569;42.652;23.040;2023-05-10T07:45:49;93199.53;;;16.29
28305;BMP280;15569;42.652;23.040;2023-05-10T07:48:14;93196.72;;;16.27
28305;BMP280;15569;42.652;23.040;2023-05-10T07:50:39;93196.81;;;16.53
28305;BMP280;15569;42.652;23.040;2023-05-10T07:53:05;93189.09;;;16.71
28305;BMP280;15569;42.652;23.040;2023-05-10T07:55:30;93194.28;;;16.61
28305;BMP280;15569;42.652;23.040;2023-05-10T07:57:55;93197.94;;;16.67
28305;BMP280;15569;42.652;23.040;2023-05-10T08:00:21;93196.69;;;16.72
28305;BMP280;15569;42.652;23.040;2023-05-10T08:02:47;93181.06;;;16.77
28305;BMP280;15569;42.652;23.040;2023-05-10T08:05:12;93192.63;;;16.73
28305;BMP280;15569;42.652;23.040;2023-05-10T08:07:38;93196.47;;;16.88
28305;BMP280;15569;42.652;23.040;2023-05-10T08:10:04;93200.47;;;16.59
28305;BMP280;15569;42.652;23.040;2023-05-10T08:12:30;93203.38;;;16.89
28305;BMP280;15569;42.652;23.040;2023-05-10T08:14:56;93199.03;;;16.82
28305;BMP280;15569;42.652;23.040;2023-05-10T08:17:21;93207.03;;;16.95
28305;BMP280;15569;42.652;23.040;2023-05-10T08:19:46;93202.81;;;16.69
28305;BMP280;15569;42.652;23.040;2023-05-10T08:22:12;93202.16;;;16.94
28305;BMP280;15569;42.652;23.040;2023-05-10T08:24:37;93197.13;;;16.86
28305;BMP280;15569;42.652;23.040;2023-05-10T08:27:08;93211.31;;;17.02
28305;BMP280;15569;42.652;23.040;2023-05-10T08:29:33;93201.94;;;17.11
28305;BMP280;15569;42.652;23.040;2023-05-10T08:31:59;93195.88;;;17.15
28305;BMP280;15569;42.652;23.040;2023-05-10T08:34:26;93209.38;;;17.07
28305;BMP280;15569;42.652;23.040;2023-05-10T08:36:51;93206.88;;;17.15
28305;BMP280;15569;42.652;23.040;2023-05-10T08:39:17;93202.69;;;16.88
28305;BMP280;15569;42.652;23.040;2023-05-10T08:41:44;93200.09;;;17.18
28305;BMP280;15569;42.652;23.040;2023-05-10T08:44:09;93199.16;;;17.09
28305;BMP280;15569;42.652;23.040;2023-05-10T08:46:36;93202.81;;;17.18
28305;BMP280;15569;42.652;23.040;2023-05-10T08:49:06;93205.13;;;17.26
28305;BMP280;15569;42.652;23.040;2023-05-10T08:51:40;93214.81;;;17.29
28305;BMP280;15569;42.652;23.040;2023-05-10T08:54:08;93207.31;;;17.31
28305;BMP280;15569;42.652;23.040;2023-05-10T08:56:34;93199.25;;;17.37
28305;BMP280;15569;42.652;23.040;2023-05-10T08:58:59;93214.16;;;17.30
28305;BMP280;15569;42.652;23.040;2023-05-10T09:01:27;93210.06;;;17.57
28305;BMP280;15569;42.652;23.040;2023-05-10T09:03:53;93200.56;;;17.62
28305;BMP280;15569;42.652;23.040;2023-05-10T09:06:18;93202.84;;;17.69
28305;BMP280;15569;42.652;23.040;2023-05-10T09:08:45;93199.50;;;17.73
28305;BMP280;15569;42.652;23.040;2023-05-10T09:11:11;93202.16;;;17.71
28305;BMP280;15569;42.652;23.040;2023-05-10T09:13:37;93201.63;;;17.76
28305;BMP280;15569;42.652;23.040;2023-05-10T09:16:03;93212.09;;;17.56
28305;BMP280;15569;42.652;23.040;2023-05-10T09:18:29;93205.16;;;17.53
28305;BMP280;15569;42.652;23.040;2023-05-10T09:20:55;93208.84;;;17.12
28305;BMP280;15569;42.652;23.040;2023-05-10T09:23:20;93212.91;;;17.35
28305;BMP280;15569;42.652;23.040;2023-05-10T09:25:46;93207.88;;;17.26
28305;BMP280;15569;42.652;23.040;2023-05-10T09:28:11;93208.25;;;17.40
28305;BMP280;15569;42.652;23.040;2023-05-10T09:30:36;93202.41;;;17.53
28305;BMP280;15569;42.652;23.040;2023-05-10T09:33:02;93199.41;;;17.43
28305;BMP280;15569;42.652;23.040;2023-05-10T09:35:29;93200.03;;;17.16
28305;BMP280;15569;42.652;23.040;2023-05-10T09:37:57;93199.97;;;17.65
28305;BMP280;15569;42.652;23.040;2023-05-10T09:40:26;93190.69;;;17.53
28305;BMP280;15569;42.652;23.040;2023-05-10T09:43:00;93199.75;;;17.57
28305;BMP280;15569;42.652;23.040;2023-05-10T09:45:30;93195.47;;;17.50
28305;BMP280;15569;42.652;23.040;2023-05-10T09:47:57;93196.91;;;17.79
28305;BMP280;15569;42.652;23.040;2023-05-10T09:50:23;93196.50;;;17.90
28305;BMP280;15569;42.652;23.040;2023-05-10T09:55:26;93185.19;;;17.78
28305;BMP280;15569;42.652;23.040;2023-05-10T09:58:02;93190.19;;;17.86
28305;BMP280;15569;42.652;23.040;2023-05-10T10:00:34;93189.78;;;17.70
28305;BMP280;15569;42.652;23.040;2023-05-10T10:03:01;93188.84;;;17.87
28305;BMP280;15569;42.652;23.040;2023-05-10T10:05:30;93189.28;;;18.05
28305;BMP280;15569;42.652;23.040;2023-05-10T10:08:00;93178.56;;;17.62
28305;BMP280;15569;42.652;23.040;2023-05-10T10:10:27;93191.56;;;17.59
28305;BMP280;15569;42.652;23.040;2023-05-10T10:12:53;93183.44;;;17.38
28305;BMP280;15569;42.652;23.040;2023-05-10T10:15:20;93186.19;;;17.63
28305;BMP280;15569;42.652;23.040;2023-05-10T10:17:46;93179.53;;;17.47
28305;BMP280;15569;42.652;23.040;2023-05-10T10:20:12;93180.78;;;17.67
28305;BMP280;15569;42.652;23.040;2023-05-10T10:22:37;93176.69;;;17.96
28305;BMP280;15569;42.652;23.040;2023-05-10T10:25:04;93169.75;;;17.95
28305;BMP280;15569;42.652;23.040;2023-05-10T10:27:43;93178.78;;;17.97
28305;BMP280;15569;42.652;23.040;2023-05-10T10:35:37;93170.38;;;17.91
28305;BMP280;15569;42.652;23.040;2023-05-10T10:38:03;93168.66;;;18.06
28305;BMP280;15569;42.652;23.040;2023-05-10T10:40:31;93173.94;;;17.96
28305;BMP280;15569;42.652;23.040;2023-05-10T10:42:57;93175.38;;;17.99
28305;BMP280;15569;42.652;23.040;2023-05-10T10:45:26;93165.13;;;18.01
28305;BMP280;15569;42.652;23.040;2023-05-10T10:48:24;93175.56;;;18.07
28305;BMP280;15569;42.652;23.040;2023-05-10T10:50:56;93173.75;;;17.88
28305;BMP280;15569;42.652;23.040;2023-05-10T10:53:26;93174.66;;;17.98
28305;BMP280;15569;42.652;23.040;2023-05-10T10:56:04;93170.06;;;18.07
28305;BMP280;15569;42.652;23.040;2023-05-10T10:58:31;93179.63;;;18.04
28305;BMP280;15569;42.652;23.040;2023-05-10T11:01:17;93174.97;;;18.10
28305;BMP280;15569;42.652;23.040;2023-05-10T11:06:33;93184.41;;;18.03
28305;BMP280;15569;42.652;23.040;2023-05-10T11:09:09;93182.78;;;17.92
28305;BMP280;15569;42.652;23.040;2023-05-10T11:11:36;93185.91;;;17.53
28305;BMP280;15569;42.652;23.040;2023-05-10T11:14:13;93179.72;;;17.53
28305;BMP280;15569;42.652;23.040;2023-05-10T11:16:43;93188.06;;;17.57
28305;BMP280;15569;42.652;23.040;2023-05-10T11:19:11;93186.19;;;17.63
28305;BMP280;15569;42.652;23.040;2023-05-10T11:24:14;93193.09;;;17.64
28305;BMP280;15569;42.652;23.040;2023-05-10T11:26:40;93185.38;;;17.59
28305;BMP280;15569;42.652;23.040;2023-05-10T11:29:05;93187.59;;;17.92
28305;BMP280;15569;42.652;23.040;2023-05-10T11:31:31;93189.56;;;17.89
28305;BMP280;15569;42.652;23.040;2023-05-10T11:33:58;93178.09;;;17.97
28305;BMP280;15569;42.652;23.040;2023-05-10T11:36:26;93187.91;;;18.06
28305;BMP280;15569;42.652;23.040;2023-05-10T11:38:53;93184.00;;;18.15
28305;BMP280;15569;42.652;23.040;2023-05-10T11:41:19;93189.84;;;18.29
28305;BMP280;15569;42.652;23.040;2023-05-10T11:43:49;93184.34;;;18.29
28305;BMP280;15569;42.652;23.040;2023-05-10T11:46:16;93180.31;;;18.34
28305;BMP280;15569;42.652;23.040;2023-05-10T11:48:43;93179.44;;;17.96
28305;BMP280;15569;42.652;23.040;2023-05-10T11:51:09;93181.63;;;18.31
28305;BMP280;15569;42.652;23.040;2023-05-10T11:53:35;93176.00;;;18.57
28305;BMP280;15569;42.652;23.040;2023-05-10T11:56:08;93176.47;;;18.79
28305;BMP280;15569;42.652;23.040;2023-05-10T11:58:36;93167.91;;;18.98
28305;BMP280;15569;42.652;23.040;2023-05-10T12:01:03;93176.50;;;19.14
28305;BMP280;15569;42.652;23.040;2023-05-10T12:03:29;93170.91;;;19.10
28305;BMP280;15569;42.652;23.040;2023-05-10T12:05:56;93175.09;;;19.13
28305;BMP280;15569;42.652;23.040;2023-05-10T12:08:22;93173.75;;;19.14
28305;BMP280;15569;42.652;23.040;2023-05-10T12:10:48;93173.69;;;18.77
28305;BMP280;15569;42.652;23.040;2023-05-10T12:13:14;93160.31;;;18.97
28305;BMP280;15569;42.652;23.040;2023-05-10T12:15:40;93173.06;;;18.80
28305;BMP280;15569;42.652;23.040;2023-05-10T12:18:11;93163.28;;;18.73
28305;BMP280;15569;42.652;23.040;2023-05-10T12:20:37;93168.75;;;18.10
28305;BMP280;15569;42.652;23.040;2023-05-10T12:23:03;93171.69;;;18.18
28305;BMP280;15569;42.652;23.040;2023-05-10T12:25:36;93165.50;;;18.17
28305;BMP280;15569;42.652;23.040;2023-05-10T12:28:07;93167.13;;;18.29
28305;BMP280;15569;42.652;23.040;2023-05-10T12:30:34;93159.47;;;18.25
28305;BMP280;15569;42.652;23.040;2023-05-10T12:35:30;93151.34;;;18.31
28305;BMP280;15569;42.652;23.040;2023-05-10T12:37:55;93150.84;;;18.39
28305;BMP280;15569;42.652;23.040;2023-05-10T12:40:21;93157.94;;;17.88
28305;BMP280;15569;42.652;23.040;2023-05-10T12:42:46;93153.47;;;17.75
28305;BMP280;15569;42.652;23.040;2023-05-10T12:45:12;93146.69;;;18.08
28305;BMP280;15569;42.652;23.040;2023-05-10T12:47:38;93152.56;;;17.94
28305;BMP280;15569;42.652;23.040;2023-05-10T12:50:03;93147.59;;;18.16
28305;BMP280;15569;42.652;23.040;2023-05-10T12:52:30;93136.84;;;17.99
28305;BMP280;15569;42.652;23.040;2023-05-10T12:54:57;93133.41;;;18.28
28305;BMP280;15569;42.652;23.040;2023-05-10T12:57:23;93137.59;;;18.31
28305;BMP280;15569;42.652;23.040;2023-05-10T12:59:48;93134.41;;;18.43
28305;BMP280;15569;42.652;23.040;2023-05-10T13:02:15;93128.59;;;18.29
28305;BMP280;15569;42.652;23.040;2023-05-10T13:04:42;93131.03;;;18.44
28305;BMP280;15569;42.652;23.040;2023-05-10T13:07:09;93127.44;;;18.08
28305;BMP280;15569;42.652;23.040;2023-05-10T13:09:34;93126.47;;;18.27
28305;BMP280;15569;42.652;23.040;2023-05-10T13:12:00;93125.28;;;18.34
28305;BMP280;15569;42.652;23.040;2023-05-10T13:14:26;93107.34;;;18.33
28305;BMP280;15569;42.652;23.040;2023-05-10T13:16:51;93110.75;;;18.30
28305;BMP280;15569;42.652;23.040;2023-05-10T13:19:17;93117.69;;;18.33
28305;BMP280;15569;42.652;23.040;2023-05-10T13:21:43;93116.66;;;18.18
28305;BMP280;15569;42.652;23.040;2023-05-10T13:24:10;93110.59;;;18.24
28305;BMP280;15569;42.652;23.040;2023-05-10T13:26:36;93117.66;;;18.01
28305;BMP280;15569;42.652;23.040;2023-05-10T13:29:02;93113.50;;;18.00
28305;BMP280;15569;42.652;23.040;2023-05-10T13:31:28;93108.69;;;18.00
28305;BMP280;15569;42.652;23.040;2023-05-10T13:33:53;93105.47;;;17.80
28305;BMP280;15569;42.652;23.040;2023-05-10T13:36:19;93104.06;;;17.79
28305;BMP280;15569;42.652;23.040;2023-05-10T13:38:44;93102.84;;;17.57
28305;BMP280;15569;42.652;23.040;2023-05-10T13:41:10;93111.44;;;17.71
28305;BMP280;15569;42.652;23.040;2023-05-10T13:43:35;93101.31;;;17.50
28305;BMP280;15569;42.652;23.040;2023-05-10T13:46:01;93109.56;;;17.79
28305;BMP280;15569;42.652;23.040;2023-05-10T13:48:26;93102.91;;;17.59
28305;BMP280;15569;42.652;23.040;2023-05-10T13:50:52;93109.50;;;17.48
28305;BMP280;15569;42.652;23.040;2023-05-10T13:53:17;93108.19;;;17.51
28305;BMP280;15569;42.652;23.040;2023-05-10T13:55:43;93116.00;;;17.60
28305;BMP280;15569;42.652;23.040;2023-05-10T13:58:09;93109.50;;;17.75
28305;BMP280;15569;42.652;23.040;2023-05-10T14:00:34;93101.91;;;17.74
28305;BMP280;15569;42.652;23.040;2023-05-10T14:02:59;93110.03;;;17.70
28305;BMP280;15569;42.652;23.040;2023-05-10T14:05:25;93111.53;;;17.75
28305;BMP280;15569;42.652;23.040;2023-05-10T14:07:51;93110.28;;;17.80
28305;BMP280;15569;42.652;23.040;2023-05-10T14:10:16;93108.94;;;17.81
28305;BMP280;15569;42.652;23.040;2023-05-10T14:12:41;93102.56;;;17.72
28305;BMP280;15569;42.652;23.040;2023-05-10T14:15:07;93110.53;;;17.90
28305;BMP280;15569;42.652;23.040;2023-05-10T14:17:33;93107.59;;;17.82
28305;BMP280;15569;42.652;23.040;2023-05-10T14:19:58;93098.31;;;17.67